sensor_id;sensor_type;location;lat;lon;timestamp;P1;durP1;ratioP1;P2;durP2;ratioP2
1402;SDS011;696;48.546;9.896;2023-04-01T00:01:53;0.95;;;0.77;;
1402;SDS011;696;48.546;9.896;2023-04-01T00:04:19;3.90;;;0.98;;
1402;SDS011;696;48.546;9.896;2023-04-01T00:06:45;1.15;;;0.60;;
1402;SDS011;696;48.546;9.896;2023-04-01T00:09:12;3.05;;;0.90;;
1402;SDS011;696;48.546;9.896;2023-04-01T00:11:38;2.28;;;1.00;;
1402;SDS011;696;48.546;9.896;2023-04-01T00:14:03;1.50;;;1.02;;
1402;SDS011;696;48.546;9.896;2023-04-01T00:16:29;1.30;;;0.88;;
1402;SDS011;696;48.546;9.896;2023-04-01T00:18:55;2.45;;;0.77;;
1402;SDS011;696;48.546;9.896;2023-04-01T00:21:20;5.68;;;0.85;;
1402;SDS011;696;48.546;9.896;2023-04-01T00:23:47;2.50;;;0.90;;
1402;SDS011;696;48.546;9.896;2023-04-01T00:26:13;2.97;;;0.68;;
1402;SDS011;696;48.546;9.896;2023-04-01T00:28:39;10.48;;;1.02;;
1402;SDS011;696;48.546;9.896;2023-04-01T00:31:08;1.15;;;0.88;;
1402;SDS011;696;48.546;9.896;2023-04-01T00:33:34;2.65;;;0.80;;
1402;SDS011;696;48.546;9.896;2023-04-01T00:36:07;4.30;;;0.93;;
1402;SDS011;696;48.546;9.896;2023-04-01T00:38:37;2.33;;;0.63;;
1402;SDS011;696;48.546;9.896;2023-04-01T00:41:03;4.75;;;1.10;;
1402;SDS011;696;48.546;9.896;2023-04-01T00:43:29;5.47;;;0.45;;
1402;SDS011;696;48.546;9.896;2023-04-01T00:45:55;0.90;;;0.50;;
1402;SDS011;696;48.546;9.896;2023-04-01T00:48:25;0.85;;;0.77;;
1402;SDS011;696;48.546;9.896;2023-04-01T00:51:15;5.47;;;0.60;;
1402;SDS011;696;48.546;9.896;2023-04-01T00:53:43;2.25;;;0.88;;
1402;SDS011;696;48.546;9.896;2023-04-01T00:56:14;6.43;;;0.88;;
1402;SDS011;696;48.546;9.896;2023-04-01T00:58:43;0.47;;;0.47;;
1402;SDS011;696;48.546;9.896;2023-04-01T01:01:10;2.15;;;0.82;;
1402;SDS011;696;48.546;9.896;2023-04-01T01:03:36;2.65;;;0.70;;
1402;SDS011;696;48.546;9.896;2023-04-01T01:11:29;0.88;;;0.60;;
1402;SDS011;696;48.546;9.896;2023-04-01T01:14:03;1.10;;;0.80;;
1402;SDS011;696;48.546;9.896;2023-04-01T01:16:44;1.95;;;0.47;;
1402;SDS011;696;48.546;9.896;2023-04-01T01:19:24;2.92;;;0.68;;
1402;SDS011;696;48.546;9.896;2023-04-01T01:27:49;1.58;;;0.73;;
1402;SDS011;696;48.546;9.896;2023-04-01T01:33:25;2.25;;;0.77;;
1402;SDS011;696;48.546;9.896;2023-04-01T01:36:14;1.20;;;0.50;;
1402;SDS011;696;48.546;9.896;2023-04-01T01:38:40;1.95;;;0.90;;
1402;SDS011;696;48.546;9.896;2023-04-01T01:41:07;0.82;;;0.68;;
1402;SDS011;696;48.546;9.896;2023-04-01T01:43:35;1.13;;;0.57;;
1402;SDS011;696;48.546;9.896;2023-04-01T01:46:09;2.92;;;0.85;;
1402;SDS011;696;48.546;9.896;2023-04-01T01:48:36;2.42;;;0.85;;
1402;SDS011;696;48.546;9.896;2023-04-01T01:51:04;0.95;;;0.88;;
1402;SDS011;696;48.546;9.896;2023-04-01T01:53:30;0.68;;;0.40;;
1402;SDS011;696;48.546;9.896;2023-04-01T01:55:55;1.98;;;0.90;;
1402;SDS011;696;48.546;9.896;2023-04-01T01:58:27;1.60;;;0.90;;
1402;SDS011;696;48.546;9.896;2023-04-01T02:00:58;0.98;;;0.63;;
1402;SDS011;696;48.546;9.896;2023-04-01T02:03:27;1.23;;;0.80;;
1402;SDS011;696;48.546;9.896;2023-04-01T02:05:55;2.45;;;0.93;;
1402;SDS011;696;48.546;9.896;2023-04-01T02:08:23;1.65;;;0.73;;
1402;SDS011;696;48.546;9.896;2023-04-01T02:11:10;1.52;;;0.80;;
1402;SDS011;696;48.546;9.896;2023-04-01T02:13:42;1.70;;;0.77;;
1402;SDS011;696;48.546;9.896;2023-04-01T02:16:15;4.40;;;0.70;;
1402;SDS011;696;48.546;9.896;2023-04-01T02:18:48;2.83;;;0.57;;
1402;SDS011;696;48.546;9.896;2023-04-01T02:21:15;2.92;;;0.70;;
1402;SDS011;696;48.546;9.896;2023-04-01T02:23:41;0.30;;;0.30;;
1402;SDS011;696;48.546;9.896;2023-04-01T02:26:07;2.30;;;0.75;;
1402;SDS011;696;48.546;9.896;2023-04-01T02:28:35;1.50;;;0.70;;
1402;SDS011;696;48.546;9.896;2023-04-01T02:31:02;1.42;;;0.63;;
1402;SDS011;696;48.546;9.896;2023-04-01T02:33:28;0.98;;;0.50;;
1402;SDS011;696;48.546;9.896;2023-04-01T02:35:55;1.27;;;0.68;;
1402;SDS011;696;48.546;9.896;2023-04-01T02:38:20;1.75;;;0.70;;
1402;SDS011;696;48.546;9.896;2023-04-01T02:40:47;1.38;;;0.88;;
1402;SDS011;696;48.546;9.896;2023-04-01T02:43:15;1.92;;;0.77;;
1402;SDS011;696;48.546;9.896;2023-04-01T02:45:41;0.55;;;0.50;;
1402;SDS011;696;48.546;9.896;2023-04-01T02:48:07;0.65;;;0.52;;
1402;SDS011;696;48.546;9.896;2023-04-01T02:50:32;2.47;;;0.70;;
1402;SDS011;696;48.546;9.896;2023-04-01T02:52:58;1.65;;;0.60;;
1402;SDS011;696;48.546;9.896;2023-04-01T02:55:23;1.65;;;0.50;;
1402;SDS011;696;48.546;9.896;2023-04-01T02:57:48;0.70;;;0.50;;
1402;SDS011;696;48.546;9.896;2023-04-01T03:00:14;0.82;;;0.45;;
1402;SDS011;696;48.546;9.896;2023-04-01T03:02:40;0.30;;;0.30;;
1402;SDS011;696;48.546;9.896;2023-04-01T03:05:06;0.50;;;0.50;;
1402;SDS011;696;48.546;9.896;2023-04-01T03:07:32;1.63;;;0.47;;
1402;SDS011;696;48.546;9.896;2023-04-01T03:09:57;0.30;;;0.30;;
1402;SDS011;696;48.546;9.896;2023-04-01T03:12:23;0.63;;;0.40;;
1402;SDS011;696;48.546;9.896;2023-04-01T03:14:48;0.40;;;0.40;;
1402;SDS011;696;48.546;9.896;2023-04-01T03:17:13;0.30;;;0.30;;
1402;SDS011;696;48.546;9.896;2023-04-01T03:19:39;1.50;;;0.68;;
1402;SDS011;696;48.546;9.896;2023-04-01T03:22:04;0.60;;;0.38;;
1402;SDS011;696;48.546;9.896;2023-04-01T03:24:30;0.50;;;0.50;;
1402;SDS011;696;48.546;9.896;2023-04-01T03:26:55;0.40;;;0.40;;
1402;SDS011;696;48.546;9.896;2023-04-01T03:29:20;0.40;;;0.40;;
1402;SDS011;696;48.546;9.896;2023-04-01T03:31:46;1.33;;;0.50;;
1402;SDS011;696;48.546;9.896;2023-04-01T03:34:11;0.85;;;0.50;;
1402;SDS011;696;48.546;9.896;2023-04-01T03:36:37;0.80;;;0.40;;
1402;SDS011;696;48.546;9.896;2023-04-01T03:39:02;0.50;;;0.50;;
1402;SDS011;696;48.546;9.896;2023-04-01T03:41:28;0.70;;;0.38;;
1402;SDS011;696;48.546;9.896;2023-04-01T03:43:54;0.35;;;0.35;;
1402;SDS011;696;48.546;9.896;2023-04-01T03:46:19;0.65;;;0.30;;
1402;SDS011;696;48.546;9.896;2023-04-01T03:48:45;0.35;;;0.35;;
1402;SDS011;696;48.546;9.896;2023-04-01T03:51:10;0.40;;;0.40;;
1402;SDS011;696;48.546;9.896;2023-04-01T03:53:36;0.30;;;0.30;;
1402;SDS011;696;48.546;9.896;2023-04-01T03:56:07;0.47;;;0.47;;
1402;SDS011;696;48.546;9.896;2023-04-01T03:58:33;0.63;;;0.50;;
1402;SDS011;696;48.546;9.896;2023-04-01T04:00:59;3.63;;;0.40;;
1402;SDS011;696;48.546;9.896;2023-04-01T04:03:25;0.40;;;0.40;;
1402;SDS011;696;48.546;9.896;2023-04-01T04:05:51;0.40;;;0.40;;
1402;SDS011;696;48.546;9.896;2023-04-01T04:08:16;0.30;;;0.30;;
1402;SDS011;696;48.546;9.896;2023-04-01T04:10:42;0.60;;;0.60;;
1402;SDS011;696;48.546;9.896;2023-04-01T04:13:08;0.73;;;0.50;;
1402;SDS011;696;48.546;9.896;2023-04-01T04:15:33;0.30;;;0.30;;
1402;SDS011;696;48.546;9.896;2023-04-01T04:17:58;0.40;;;0.40;;
1402;SDS011;696;48.546;9.896;2023-04-01T04:20:24;0.50;;;0.50;;
1402;SDS011;696;48.546;9.896;2023-04-01T04:22:49;0.30;;;0.30;;
1402;SDS011;696;48.546;9.896;2023-04-01T04:25:15;0.43;;;0.40;;
1402;SDS011;696;48.546;9.896;2023-04-01T04:27:40;0.30;;;0.30;;
1402;SDS011;696;48.546;9.896;2023-04-01T04:30:06;0.45;;;0.45;;
1402;SDS011;696;48.546;9.896;2023-04-01T04:32:32;0.50;;;0.50;;
1402;SDS011;696;48.546;9.896;2023-04-01T04:34:57;0.50;;;0.40;;
1402;SDS011;696;48.546;9.896;2023-04-01T04:37:23;0.45;;;0.40;;
1402;SDS011;696;48.546;9.896;2023-04-01T04:39:48;0.60;;;0.60;;
1402;SDS011;696;48.546;9.896;2023-04-01T04:42:13;0.50;;;0.50;;
1402;SDS011;696;48.546;9.896;2023-04-01T04:44:39;0.55;;;0.55;;
1402;SDS011;696;48.546;9.896;2023-04-01T04:47:04;0.50;;;0.50;;
1402;SDS011;696;48.546;9.896;2023-04-01T04:49:30;0.50;;;0.50;;
1402;SDS011;696;48.546;9.896;2023-04-01T04:51:56;0.63;;;0.55;;
1402;SDS011;696;48.546;9.896;2023-04-01T04:54:21;0.50;;;0.50;;
1402;SDS011;696;48.546;9.896;2023-04-01T04:56:46;0.47;;;0.47;;
1402;SDS011;696;48.546;9.896;2023-04-01T04:59:12;0.50;;;0.50;;
1402;SDS011;696;48.546;9.896;2023-04-01T05:01:37;0.82;;;0.40;;
1402;SDS011;696;48.546;9.896;2023-04-01T05:04:03;1.27;;;0.55;;
1402;SDS011;696;48.546;9.896;2023-04-01T05:06:28;0.70;;;0.68;;
1402;SDS011;696;48.546;9.896;2023-04-01T05:08:56;0.60;;;0.60;;
1402;SDS011;696;48.546;9.896;2023-04-01T05:11:22;0.50;;;0.50;;
1402;SDS011;696;48.546;9.896;2023-04-01T05:13:47;0.60;;;0.60;;
1402;SDS011;696;48.546;9.896;2023-04-01T05:16:14;0.75;;;0.50;;
1402;SDS011;696;48.546;9.896;2023-04-01T05:18:41;4.10;;;0.93;;
1402;SDS011;696;48.546;9.896;2023-04-01T05:21:07;1.40;;;0.98;;
1402;SDS011;696;48.546;9.896;2023-04-01T05:23:34;1.20;;;1.10;;
1402;SDS011;696;48.546;9.896;2023-04-01T05:26:04;1.50;;;1.33;;
1402;SDS011;696;48.546;9.896;2023-04-01T05:28:30;1.35;;;0.98;;
1402;SDS011;696;48.546;9.896;2023-04-01T05:30:57;3.08;;;0.90;;
1402;SDS011;696;48.546;9.896;2023-04-01T05:33:23;0.80;;;0.80;;
1402;SDS011;696;48.546;9.896;2023-04-01T05:35:49;1.35;;;0.70;;
1402;SDS011;696;48.546;9.896;2023-04-01T05:38:14;0.80;;;0.70;;
1402;SDS011;696;48.546;9.896;2023-04-01T05:40:40;2.70;;;0.80;;
1402;SDS011;696;48.546;9.896;2023-04-01T05:43:05;0.70;;;0.70;;
1402;SDS011;696;48.546;9.896;2023-04-01T05:45:30;0.50;;;0.50;;
1402;SDS011;696;48.546;9.896;2023-04-01T05:47:56;0.57;;;0.57;;
1402;SDS011;696;48.546;9.896;2023-04-01T05:50:21;0.70;;;0.70;;
1402;SDS011;696;48.546;9.896;2023-04-01T05:52:47;3.63;;;0.73;;
1402;SDS011;696;48.546;9.896;2023-04-01T05:55:12;1.88;;;1.10;;
1402;SDS011;696;48.546;9.896;2023-04-01T05:57:38;1.02;;;0.80;;
1402;SDS011;696;48.546;9.896;2023-04-01T06:00:05;1.88;;;0.63;;
1402;SDS011;696;48.546;9.896;2023-04-01T06:02:33;2.45;;;0.68;;
1402;SDS011;696;48.546;9.896;2023-04-01T06:07:57;1.85;;;0.70;;
1402;SDS011;696;48.546;9.896;2023-04-01T06:10:28;0.55;;;0.55;;
1402;SDS011;696;48.546;9.896;2023-04-01T06:13:06;1.20;;;0.75;;
1402;SDS011;696;48.546;9.896;2023-04-01T06:15:43;0.93;;;0.70;;
1402;SDS011;696;48.546;9.896;2023-04-01T06:26:25;0.40;;;0.40;;
1402;SDS011;696;48.546;9.896;2023-04-01T06:32:19;0.80;;;0.55;;
1402;SDS011;696;48.546;9.896;2023-04-01T06:40:47;0.43;;;0.38;;
1402;SDS011;696;48.546;9.896;2023-04-01T06:46:19;0.75;;;0.60;;
1402;SDS011;696;48.546;9.896;2023-04-01T06:51:31;0.47;;;0.30;;
1402;SDS011;696;48.546;9.896;2023-04-01T06:54:11;0.70;;;0.52;;
1402;SDS011;696;48.546;9.896;2023-04-01T06:56:42;2.10;;;0.70;;
1402;SDS011;696;48.546;9.896;2023-04-01T06:59:18;1.42;;;0.50;;
1402;SDS011;696;48.546;9.896;2023-04-01T07:01:53;0.40;;;0.40;;
1402;SDS011;696;48.546;9.896;2023-04-01T07:06:58;0.43;;;0.43;;
1402;SDS011;696;48.546;9.896;2023-04-01T07:09:28;1.00;;;0.57;;
1402;SDS011;696;48.546;9.896;2023-04-01T07:11:59;0.70;;;0.32;;
1402;SDS011;696;48.546;9.896;2023-04-01T07:14:30;0.52;;;0.40;;
1402;SDS011;696;48.546;9.896;2023-04-01T07:19:50;0.50;;;0.50;;
1402;SDS011;696;48.546;9.896;2023-04-01T07:25:05;0.60;;;0.60;;
1402;SDS011;696;48.546;9.896;2023-04-01T07:27:36;0.98;;;0.60;;
1402;SDS011;696;48.546;9.896;2023-04-01T07:30:02;1.20;;;0.40;;
1402;SDS011;696;48.546;9.896;2023-04-01T07:32:41;0.43;;;0.40;;
1402;SDS011;696;48.546;9.896;2023-04-01T07:48:58;0.50;;;0.50;;
1402;SDS011;696;48.546;9.896;2023-04-01T07:51:39;0.77;;;0.60;;
1402;SDS011;696;48.546;9.896;2023-04-01T07:54:08;0.43;;;0.43;;
1402;SDS011;696;48.546;9.896;2023-04-01T08:02:27;1.77;;;0.63;;
1402;SDS011;696;48.546;9.896;2023-04-01T08:16:18;1.13;;;0.57;;
1402;SDS011;696;48.546;9.896;2023-04-01T08:24:19;0.80;;;0.38;;
1402;SDS011;696;48.546;9.896;2023-04-01T08:27:16;1.35;;;0.57;;
1402;SDS011;696;48.546;9.896;2023-04-01T08:29:46;1.35;;;0.47;;
1402;SDS011;696;48.546;9.896;2023-04-01T08:32:16;0.77;;;0.63;;
1402;SDS011;696;48.546;9.896;2023-04-01T08:34:46;1.05;;;0.45;;
1402;SDS011;696;48.546;9.896;2023-04-01T08:37:23;1.20;;;0.60;;
1402;SDS011;696;48.546;9.896;2023-04-01T08:39:58;0.60;;;0.43;;
1402;SDS011;696;48.546;9.896;2023-04-01T08:42:35;0.47;;;0.43;;
1402;SDS011;696;48.546;9.896;2023-04-01T08:50:35;3.10;;;0.60;;
1402;SDS011;696;48.546;9.896;2023-04-01T08:55:51;0.40;;;0.40;;
1402;SDS011;696;48.546;9.896;2023-04-01T09:17:29;5.43;;;0.50;;
1402;SDS011;696;48.546;9.896;2023-04-01T09:26:07;0.40;;;0.40;;
1402;SDS011;696;48.546;9.896;2023-04-01T09:28:45;0.98;;;0.60;;
1402;SDS011;696;48.546;9.896;2023-04-01T09:36:54;0.75;;;0.70;;
1402;SDS011;696;48.546;9.896;2023-04-01T09:39:37;0.57;;;0.57;;
1402;SDS011;696;48.546;9.896;2023-04-01T09:42:29;0.38;;;0.38;;
1402;SDS011;696;48.546;9.896;2023-04-01T09:45:25;0.40;;;0.40;;
1402;SDS011;696;48.546;9.896;2023-04-01T09:50:35;0.30;;;0.30;;
1402;SDS011;696;48.546;9.896;2023-04-01T09:53:14;0.40;;;0.40;;
1402;SDS011;696;48.546;9.896;2023-04-01T09:59:00;0.38;;;0.38;;
1402;SDS011;696;48.546;9.896;2023-04-01T10:32:02;0.20;;;0.20;;
1402;SDS011;696;48.546;9.896;2023-04-01T10:40:17;0.32;;;0.30;;
1402;SDS011;696;48.546;9.896;2023-04-01T10:45:37;0.40;;;0.40;;
1402;SDS011;696;48.546;9.896;2023-04-01T10:48:12;0.30;;;0.30;;
1402;SDS011;696;48.546;9.896;2023-04-01T10:56:00;0.40;;;0.40;;
1402;SDS011;696;48.546;9.896;2023-04-01T11:15:53;1.65;;;0.50;;
1402;SDS011;696;48.546;9.896;2023-04-01T11:26:52;0.98;;;0.50;;
1402;SDS011;696;48.546;9.896;2023-04-01T11:46:05;0.57;;;0.40;;
1402;SDS011;696;48.546;9.896;2023-04-01T12:02:25;0.20;;;0.20;;
1402;SDS011;696;48.546;9.896;2023-04-01T12:05:10;0.30;;;0.30;;
1402;SDS011;696;48.546;9.896;2023-04-01T12:07:54;0.30;;;0.30;;
1402;SDS011;696;48.546;9.896;2023-04-01T12:13:12;0.40;;;0.40;;
1402;SDS011;696;48.546;9.896;2023-04-01T12:23:58;0.43;;;0.40;;
1402;SDS011;696;48.546;9.896;2023-04-01T12:35:00;0.40;;;0.40;;
1402;SDS011;696;48.546;9.896;2023-04-01T12:42:56;0.47;;;0.40;;
1402;SDS011;696;48.546;9.896;2023-04-01T12:53:38;0.30;;;0.30;;
1402;SDS011;696;48.546;9.896;2023-04-01T13:13:20;0.63;;;0.32;;
1402;SDS011;696;48.546;9.896;2023-04-01T13:19:17;0.30;;;0.30;;
1402;SDS011;696;48.546;9.896;2023-04-01T13:22:15;0.20;;;0.20;;
1402;SDS011;696;48.546;9.896;2023-04-01T13:30:01;0.95;;;0.40;;
1402;SDS011;696;48.546;9.896;2023-04-01T13:38:19;0.30;;;0.30;;
1402;SDS011;696;48.546;9.896;2023-04-01T13:43:58;0.50;;;0.30;;
1402;SDS011;696;48.546;9.896;2023-04-01T13:57:38;1.02;;;0.40;;
1402;SDS011;696;48.546;9.896;2023-04-01T14:00:19;0.20;;;0.20;;
1402;SDS011;696;48.546;9.896;2023-04-01T14:05:51;0.40;;;0.40;;
1402;SDS011;696;48.546;9.896;2023-04-01T14:08:22;0.30;;;0.30;;
1402;SDS011;696;48.546;9.896;2023-04-01T14:22:38;1.77;;;0.40;;
1402;SDS011;696;48.546;9.896;2023-04-01T14:33:51;0.45;;;0.30;;
1402;SDS011;696;48.546;9.896;2023-04-01T14:54:53;0.28;;;0.28;;
1402;SDS011;696;48.546;9.896;2023-04-01T14:57:29;0.50;;;0.50;;
1402;SDS011;696;48.546;9.896;2023-04-01T15:00:12;1.13;;;0.50;;
1402;SDS011;696;48.546;9.896;2023-04-01T15:05:15;0.30;;;0.30;;
1402;SDS011;696;48.546;9.896;2023-04-01T15:08:05;0.30;;;0.30;;
1402;SDS011;696;48.546;9.896;2023-04-01T15:10:43;1.45;;;0.35;;
1402;SDS011;696;48.546;9.896;2023-04-01T15:19:09;0.35;;;0.35;;
1402;SDS011;696;48.546;9.896;2023-04-01T15:25:02;0.22;;;0.22;;
1402;SDS011;696;48.546;9.896;2023-04-01T15:33:02;1.05;;;0.50;;
1402;SDS011;696;48.546;9.896;2023-04-01T15:38:24;0.40;;;0.40;;
1402;SDS011;696;48.546;9.896;2023-04-01T15:43:46;0.47;;;0.40;;
1402;SDS011;696;48.546;9.896;2023-04-01T15:57:28;0.20;;;0.20;;
1402;SDS011;696;48.546;9.896;2023-04-01T16:20:15;2.38;;;0.38;;
1402;SDS011;696;48.546;9.896;2023-04-01T16:23:04;0.75;;;0.50;;
1402;SDS011;696;48.546;9.896;2023-04-01T16:28:53;0.30;;;0.30;;
1402;SDS011;696;48.546;9.896;2023-04-01T16:33:57;0.40;;;0.40;;
1402;SDS011;696;48.546;9.896;2023-04-01T16:36:41;1.75;;;0.70;;
1402;SDS011;696;48.546;9.896;2023-04-01T16:41:41;1.77;;;1.27;;
1402;SDS011;696;48.546;9.896;2023-04-01T16:44:17;3.35;;;1.45;;
1402;SDS011;696;48.546;9.896;2023-04-01T16:49:40;0.70;;;0.65;;
1402;SDS011;696;48.546;9.896;2023-04-01T16:57:28;1.45;;;0.90;;
1402;SDS011;696;48.546;9.896;2023-04-01T17:02:49;0.50;;;0.50;;
1402;SDS011;696;48.546;9.896;2023-04-01T17:05:33;5.47;;;0.70;;
1402;SDS011;696;48.546;9.896;2023-04-01T17:11:00;2.28;;;0.70;;
1402;SDS011;696;48.546;9.896;2023-04-01T17:13:37;0.50;;;0.50;;
1402;SDS011;696;48.546;9.896;2023-04-01T17:22:07;1.73;;;0.70;;
1402;SDS011;696;48.546;9.896;2023-04-01T17:25:05;0.90;;;0.50;;
1402;SDS011;696;48.546;9.896;2023-04-01T17:27:39;0.50;;;0.50;;
1402;SDS011;696;48.546;9.896;2023-04-01T17:36:27;0.75;;;0.52;;
1402;SDS011;696;48.546;9.896;2023-04-01T17:39:08;0.60;;;0.60;;
1402;SDS011;696;48.546;9.896;2023-04-01T17:41:53;0.75;;;0.50;;
1402;SDS011;696;48.546;9.896;2023-04-01T17:44:45;0.40;;;0.40;;
1402;SDS011;696;48.546;9.896;2023-04-01T17:52:52;0.45;;;0.45;;
1402;SDS011;696;48.546;9.896;2023-04-01T17:55:38;1.00;;;0.70;;
1402;SDS011;696;48.546;9.896;2023-04-01T17:58:25;2.03;;;0.63;;
1402;SDS011;696;48.546;9.896;2023-04-01T18:01:02;0.82;;;0.80;;
1402;SDS011;696;48.546;9.896;2023-04-01T18:06:46;0.95;;;0.70;;
1402;SDS011;696;48.546;9.896;2023-04-01T18:09:27;0.95;;;0.80;;
1402;SDS011;696;48.546;9.896;2023-04-01T18:17:32;2.13;;;0.95;;
1402;SDS011;696;48.546;9.896;2023-04-01T18:20:22;3.70;;;0.80;;
1402;SDS011;696;48.546;9.896;2023-04-01T18:23:27;0.70;;;0.70;;
1402;SDS011;696;48.546;9.896;2023-04-01T18:26:34;0.65;;;0.63;;
1402;SDS011;696;48.546;9.896;2023-04-01T18:31:47;2.30;;;0.82;;
1402;SDS011;696;48.546;9.896;2023-04-01T18:34:25;1.60;;;1.00;;
1402;SDS011;696;48.546;9.896;2023-04-01T18:37:22;0.93;;;0.65;;
1402;SDS011;696;48.546;9.896;2023-04-01T18:39:50;1.02;;;0.80;;
1402;SDS011;696;48.546;9.896;2023-04-01T18:45:28;0.90;;;0.80;;
1402;SDS011;696;48.546;9.896;2023-04-01T18:54:00;1.85;;;1.08;;
1402;SDS011;696;48.546;9.896;2023-04-01T18:56:44;1.73;;;1.20;;
1402;SDS011;696;48.546;9.896;2023-04-01T18:59:12;1.20;;;1.00;;
1402;SDS011;696;48.546;9.896;2023-04-01T19:02:07;0.60;;;0.55;;
1402;SDS011;696;48.546;9.896;2023-04-01T19:04:43;3.03;;;0.90;;
1402;SDS011;696;48.546;9.896;2023-04-01T19:12:42;2.03;;;1.20;;
1402;SDS011;696;48.546;9.896;2023-04-01T19:29:49;1.73;;;1.20;;
1402;SDS011;696;48.546;9.896;2023-04-01T19:38:04;1.30;;;1.00;;
1402;SDS011;696;48.546;9.896;2023-04-01T19:45:57;0.70;;;0.60;;
1402;SDS011;696;48.546;9.896;2023-04-01T19:48:42;1.50;;;0.65;;
1402;SDS011;696;48.546;9.896;2023-04-01T19:56:31;1.98;;;0.63;;
1402;SDS011;696;48.546;9.896;2023-04-01T20:01:44;1.00;;;0.70;;
1402;SDS011;696;48.546;9.896;2023-04-01T20:04:57;2.78;;;0.80;;
1402;SDS011;696;48.546;9.896;2023-04-01T20:10:05;1.58;;;0.60;;
1402;SDS011;696;48.546;9.896;2023-04-01T20:15:21;1.23;;;0.70;;
1402;SDS011;696;48.546;9.896;2023-04-01T20:17:47;0.77;;;0.77;;
1402;SDS011;696;48.546;9.896;2023-04-01T20:20:15;0.63;;;0.60;;
1402;SDS011;696;48.546;9.896;2023-04-01T20:46:48;0.70;;;0.70;;
1402;SDS011;696;48.546;9.896;2023-04-01T20:49:26;3.65;;;0.60;;
1402;SDS011;696;48.546;9.896;2023-04-01T20:57:23;2.33;;;1.15;;
1402;SDS011;696;48.546;9.896;2023-04-01T21:07:58;2.25;;;0.70;;
1402;SDS011;696;48.546;9.896;2023-04-01T21:13:34;1.35;;;0.85;;
1402;SDS011;696;48.546;9.896;2023-04-01T21:21:26;0.93;;;0.85;;
1402;SDS011;696;48.546;9.896;2023-04-01T21:32:12;1.30;;;1.10;;
1402;SDS011;696;48.546;9.896;2023-04-01T21:38:09;1.60;;;1.10;;
1402;SDS011;696;48.546;9.896;2023-04-01T21:40:50;0.90;;;0.73;;
1402;SDS011;696;48.546;9.896;2023-04-01T21:54:37;0.80;;;0.80;;
1402;SDS011;696;48.546;9.896;2023-04-01T22:17:03;1.65;;;0.75;;
1402;SDS011;696;48.546;9.896;2023-04-01T22:20:21;2.63;;;0.90;;
1402;SDS011;696;48.546;9.896;2023-04-01T22:22:49;5.93;;;0.93;;
1402;SDS011;696;48.546;9.896;2023-04-01T22:25:32;0.68;;;0.60;;
1402;SDS011;696;48.546;9.896;2023-04-01T22:28:05;0.70;;;0.70;;
1402;SDS011;696;48.546;9.896;2023-04-01T22:38:03;1.23;;;0.98;;
1402;SDS011;696;48.546;9.896;2023-04-01T22:46:03;1.33;;;1.05;;
1402;SDS011;696;48.546;9.896;2023-04-01T22:48:42;0.98;;;0.98;;
1402;SDS011;696;48.546;9.896;2023-04-01T22:51:20;0.98;;;0.93;;
1402;SDS011;696;48.546;9.896;2023-04-01T22:56:36;1.13;;;1.02;;
1402;SDS011;696;48.546;9.896;2023-04-01T22:59:06;1.10;;;0.90;;
1402;SDS011;696;48.546;9.896;2023-04-01T23:01:34;1.20;;;1.00;;
1402;SDS011;696;48.546;9.896;2023-04-01T23:04:04;1.08;;;0.95;;
1402;SDS011;696;48.546;9.896;2023-04-01T23:06:33;1.35;;;0.85;;
1402;SDS011;696;48.546;9.896;2023-04-01T23:19:47;1.80;;;0.85;;
1402;SDS011;696;48.546;9.896;2023-04-01T23:24:57;5.85;;;1.50;;
1402;SDS011;696;48.546;9.896;2023-04-01T23:38:19;2.83;;;1.02;;
1402;SDS011;696;48.546;9.896;2023-04-01T23:40:49;2.25;;;1.25;;
1402;SDS011;696;48.546;9.896;2023-04-01T23:43:24;1.60;;;1.15;;
1402;SDS011;696;48.546;9.896;2023-04-01T23:45:56;1.63;;;0.90;;
1402;SDS011;696;48.546;9.896;2023-04-01T23:48:29;1.08;;;0.90;;
1402;SDS011;696;48.546;9.896;2023-04-01T23:50:57;0.98;;;0.77;;
1402;SDS011;696;48.546;9.896;2023-04-01T23:53:24;1.20;;;0.90;;
1402;SDS011;696;48.546;9.896;2023-04-01T23:55:51;0.80;;;0.80;;
1402;SDS011;696;48.546;9.896;2023-04-01T23:58:24;3.10;;;1.10;;
